createdAt,value
2023-12-27T05:59:47.068Z,8.50
2023-12-27T06:02:15.198Z,8.00
2023-12-27T06:04:43.297Z,8.30
2023-12-27T06:07:11.407Z,8.20
2023-12-27T06:09:39.603Z,8.10
2023-12-27T06:12:09.650Z,8.40
2023-12-27T06:17:09.128Z,7.90
2023-12-27T06:19:38.220Z,8.20
2023-12-27T06:22:06.458Z,8.50
2023-12-27T06:24:34.654Z,8.20
2023-12-27T06:27:02.894Z,8.40
2023-12-27T06:29:32.410Z,8.60
2023-12-27T06:32:00.583Z,8.70
2023-12-27T06:34:28.863Z,8.70
2023-12-27T06:36:57.049Z,8.80
2023-12-27T06:39:25.281Z,8.80
2023-12-27T06:41:53.433Z,8.90
2023-12-27T06:44:21.575Z,8.80
2023-12-27T06:46:51.487Z,8.70
2023-12-27T06:49:19.684Z,8.90
2023-12-27T06:51:47.932Z,8.70
2023-12-27T06:54:16.067Z,9.00
2023-12-27T06:56:44.205Z,9.00
2023-12-27T06:59:12.391Z,9.00
2023-12-27T07:04:10.442Z,9.10
2023-12-27T07:06:40.289Z,9.00
2023-12-27T07:09:10.827Z,8.80
2023-12-27T07:11:39.779Z,9.20
2023-12-27T07:14:08.719Z,9.10
2023-12-27T07:16:36.883Z,9.00
2023-12-27T07:19:05.207Z,9.30
2023-12-27T07:21:34.876Z,9.00
2023-12-27T07:24:03.115Z,9.10
2023-12-27T07:26:34.030Z,9.00
2023-12-27T07:29:02.213Z,9.00
2023-12-27T07:31:30.371Z,9.30
2023-12-27T07:33:58.672Z,9.10
2023-12-27T07:36:26.881Z,9.10
2023-12-27T07:38:56.388Z,9.30
2023-12-27T07:41:24.655Z,9.00
2023-12-27T07:43:52.764Z,9.00
2023-12-27T07:46:20.860Z,9.30
2023-12-27T07:51:17.583Z,9.50
2023-12-27T07:53:45.770Z,9.30
2023-12-27T07:56:16.873Z,9.40
2023-12-27T07:58:45.067Z,9.20
2023-12-27T08:01:13.271Z,9.20
2023-12-27T08:03:41.741Z,9.20
2023-12-27T08:06:10.091Z,9.40
2023-12-27T08:08:38.381Z,9.20
2023-12-27T08:11:07.107Z,9.30
2023-12-27T08:13:37.752Z,9.40
2023-12-27T08:16:07.456Z,9.40
2023-12-27T08:18:36.791Z,9.40
2023-12-27T08:21:05.997Z,9.40
2023-12-27T08:23:37.078Z,9.50
2023-12-27T08:26:08.210Z,9.40
2023-12-27T08:41:04.416Z,9.70
2023-12-27T08:43:34.533Z,9.60
2023-12-27T08:46:04.127Z,9.70
2023-12-27T08:58:30.008Z,9.70
2023-12-27T09:00:59.697Z,9.80
2023-12-27T09:03:29.436Z,9.70
2023-12-27T09:05:57.979Z,9.70
2023-12-27T09:08:26.162Z,9.70
2023-12-27T09:10:54.287Z,9.70
2023-12-27T09:13:22.394Z,9.80
2023-12-27T09:15:50.783Z,9.70
2023-12-27T09:18:19.110Z,9.70
2023-12-27T09:20:48.743Z,9.80
2023-12-27T09:23:17.032Z,9.70
2023-12-27T09:25:45.117Z,9.70
2023-12-27T09:28:13.269Z,9.80
2023-12-27T09:30:41.707Z,9.80
2023-12-27T09:33:10.423Z,9.80
2023-12-27T09:35:39.106Z,9.80
2023-12-27T09:38:08.980Z,9.80
2023-12-27T09:40:37.296Z,9.80
2023-12-27T09:43:07.116Z,9.80
2023-12-27T09:45:37.269Z,9.80
2023-12-27T09:48:09.066Z,9.80
2023-12-27T09:50:37.766Z,9.80
2023-12-27T09:53:11.449Z,9.90
2023-12-27T09:55:40.004Z,9.80
2023-12-27T09:58:09.019Z,9.90
2023-12-27T10:00:40.043Z,9.80
2023-12-27T10:03:12.381Z,9.90
2023-12-27T10:05:48.918Z,9.90
2023-12-27T10:08:19.077Z,9.90
2023-12-27T10:10:48.725Z,9.90
2023-12-27T10:13:17.329Z,9.80
2023-12-27T10:15:45.706Z,9.90
2023-12-27T10:18:14.014Z,9.90
2023-12-27T10:20:44.844Z,9.90
2023-12-27T10:23:13.211Z,9.90
2023-12-27T10:25:44.311Z,9.90
2023-12-27T10:28:12.448Z,9.90
2023-12-27T10:30:40.653Z,10.00
2023-12-27T10:33:10.152Z,10.00
2023-12-27T10:35:40.198Z,10.00
2023-12-27T10:38:08.829Z,9.90
2023-12-27T10:40:39.166Z,10.00
2023-12-27T10:43:09.130Z,10.00
2023-12-27T10:45:38.153Z,10.00
2023-12-27T10:48:07.774Z,10.10
2023-12-27T10:50:36.939Z,10.10
2023-12-27T10:53:07.883Z,10.10
2023-12-27T10:55:37.829Z,10.10
2023-12-27T10:58:18.410Z,10.10
2023-12-27T11:00:48.642Z,10.20
2023-12-27T11:03:17.040Z,10.20
2023-12-27T11:05:47.335Z,10.20
2023-12-27T11:08:17.308Z,10.20
2023-12-27T11:10:47.849Z,10.20
2023-12-27T11:13:18.543Z,10.20
2023-12-27T11:15:48.386Z,10.20
2023-12-27T11:18:17.133Z,10.30
2023-12-27T11:20:48.612Z,10.30
2023-12-27T11:23:16.884Z,10.30
2023-12-27T11:25:45.379Z,10.30
2023-12-27T11:28:14.228Z,10.40
2023-12-27T11:30:47.350Z,10.40
2023-12-27T11:33:20.877Z,10.40
2023-12-27T11:35:49.703Z,10.40
2023-12-27T11:38:19.965Z,10.50
2023-12-27T11:40:48.371Z,10.60
2023-12-27T11:43:23.976Z,10.60
2023-12-27T11:46:03.420Z,10.50
2023-12-27T11:48:35.488Z,10.60
2023-12-27T11:51:04.876Z,10.60
2023-12-27T11:53:33.516Z,10.60
2023-12-27T11:56:03.729Z,10.70
2023-12-27T11:58:33.785Z,10.70
2023-12-27T12:01:31.511Z,10.70
2023-12-27T12:04:38.929Z,10.70
2023-12-27T12:07:46.768Z,10.70
2023-12-27T12:10:28.293Z,10.70
2023-12-27T12:12:59.327Z,10.70
2023-12-27T12:15:31.477Z,10.70
2023-12-27T12:18:02.478Z,10.70
2023-12-27T12:20:32.010Z,10.70
2023-12-27T12:23:01.916Z,10.60
2023-12-27T12:25:30.069Z,10.70
2023-12-27T12:28:00.663Z,10.70
2023-12-27T12:30:29.270Z,10.60
2023-12-27T12:32:57.663Z,10.60
2023-12-27T12:35:27.586Z,10.60
2023-12-27T12:37:56.136Z,10.60
2023-12-27T12:40:24.700Z,10.50
2023-12-27T12:42:53.961Z,10.50
2023-12-27T12:45:22.337Z,10.50
2023-12-27T12:47:51.996Z,10.60
2023-12-27T12:50:20.698Z,10.40
2023-12-27T12:52:51.641Z,10.50
2023-12-27T12:55:20.761Z,10.50
2023-12-27T12:57:49.671Z,10.50
2023-12-27T13:00:23.739Z,10.50
2023-12-27T13:02:52.196Z,10.50
2023-12-27T13:05:20.367Z,10.50
2023-12-27T13:07:50.178Z,10.50
2023-12-27T13:10:21.107Z,10.50
2023-12-27T13:12:49.229Z,10.50
2023-12-27T13:15:21.175Z,10.50
2023-12-27T13:17:50.150Z,10.50
2023-12-27T13:20:18.364Z,10.50
2023-12-27T13:22:46.574Z,10.50
2023-12-27T13:25:17.989Z,10.50
2023-12-27T13:27:55.289Z,10.50
2023-12-27T13:30:26.924Z,10.50
2023-12-27T13:32:55.244Z,10.50
2023-12-27T13:35:23.406Z,10.60
2023-12-27T13:37:51.575Z,10.50
2023-12-27T13:40:21.061Z,10.60
2023-12-27T13:42:49.263Z,10.50
2023-12-27T13:45:17.678Z,10.50
2023-12-27T13:47:45.907Z,10.50
2023-12-27T13:50:14.125Z,10.50
2023-12-27T13:52:42.270Z,10.50
2023-12-27T13:55:11.908Z,10.50
2023-12-27T13:57:41.636Z,10.50
2023-12-27T14:00:15.883Z,10.50
2023-12-27T14:02:45.025Z,10.50
2023-12-27T14:05:13.238Z,10.60
2023-12-27T14:07:41.462Z,10.50
2023-12-27T14:10:10.426Z,10.50
2023-12-27T14:12:44.245Z,10.50
2023-12-27T14:15:14.788Z,10.50
2023-12-27T14:17:46.809Z,10.50
2023-12-27T14:20:15.380Z,10.50
2023-12-27T14:22:44.191Z,10.50
2023-12-27T14:25:13.084Z,10.50
2023-12-27T14:27:41.480Z,10.50
2023-12-27T14:30:11.415Z,10.40
2023-12-27T14:32:41.221Z,10.40
2023-12-27T14:35:11.081Z,10.40
2023-12-27T14:37:40.078Z,10.40
2023-12-27T14:40:09.546Z,10.30
2023-12-27T14:42:37.829Z,10.30
2023-12-27T14:45:06.787Z,10.30
2023-12-27T14:47:35.046Z,10.30
2023-12-27T14:50:04.693Z,10.30
2023-12-27T14:52:32.854Z,10.20
2023-12-27T14:55:01.056Z,10.20
2023-12-27T14:57:29.260Z,10.20
2023-12-27T14:59:57.432Z,10.20
2023-12-27T15:02:25.561Z,10.10
2023-12-27T15:04:53.754Z,10.10
2023-12-27T15:07:23.315Z,10.10
2023-12-27T15:09:51.600Z,10.00
2023-12-27T15:12:19.873Z,10.00
2023-12-27T15:14:48.091Z,10.00
2023-12-27T15:17:16.481Z,10.00
2023-12-27T15:19:44.756Z,9.90
2023-12-27T15:22:12.963Z,9.90
2023-12-27T15:24:43.119Z,9.90
2023-12-27T15:27:11.858Z,9.80
2023-12-27T15:29:40.209Z,9.80
2023-12-27T15:32:08.719Z,9.80
2023-12-27T15:34:36.937Z,9.80
2023-12-27T15:37:05.656Z,9.80
2023-12-27T15:39:33.903Z,9.70
2023-12-27T15:42:03.672Z,9.70
2023-12-27T15:44:32.369Z,9.70
2023-12-27T15:47:02.324Z,9.60
2023-12-27T15:49:30.844Z,9.70
2023-12-27T15:51:59.631Z,9.60
2023-12-27T15:54:28.072Z,9.60
2023-12-27T15:56:57.079Z,9.60
2023-12-27T15:59:26.641Z,9.60
2023-12-27T16:01:55.454Z,9.50
2023-12-27T16:04:24.604Z,9.60
2023-12-27T16:06:54.672Z,9.50
2023-12-27T16:09:22.927Z,9.60
2023-12-27T16:11:51.386Z,9.60
2023-12-27T16:14:19.564Z,9.50
2023-12-27T16:16:49.047Z,9.50
2023-12-27T16:19:17.347Z,9.40
2023-12-27T16:21:45.996Z,9.40
2023-12-27T16:24:15.000Z,9.50
2023-12-27T16:26:43.319Z,9.40
2023-12-27T16:31:40.540Z,9.40
2023-12-27T16:34:10.280Z,9.40
2023-12-27T16:36:38.575Z,9.40
2023-12-27T16:39:06.737Z,9.40
2023-12-27T16:41:36.995Z,9.40
2023-12-27T16:44:05.459Z,9.30
2023-12-27T16:46:36.437Z,9.40
2023-12-27T16:49:05.200Z,9.40
2023-12-27T16:51:34.886Z,9.40
2023-12-27T16:54:03.069Z,9.40
2023-12-27T16:56:31.302Z,9.40
2023-12-27T17:01:30.159Z,9.40
2023-12-27T17:03:58.397Z,9.40
2023-12-27T17:06:27.626Z,9.30
2023-12-27T17:08:57.182Z,9.30
2023-12-27T17:11:25.340Z,9.40
2023-12-27T17:13:53.457Z,9.30
2023-12-27T17:16:21.634Z,9.30
2023-12-27T17:18:50.816Z,9.30
2023-12-27T17:21:21.370Z,9.40
2023-12-27T17:23:49.883Z,9.40
2023-12-27T17:26:19.388Z,9.40
2023-12-27T17:28:47.533Z,9.30
2023-12-27T17:31:15.747Z,9.30
2023-12-27T17:33:44.163Z,9.50
2023-12-27T17:36:12.419Z,9.30
2023-12-27T17:38:40.525Z,9.60
2023-12-27T17:41:08.620Z,9.30
2023-12-27T17:43:41.313Z,9.40
2023-12-27T17:46:09.497Z,9.30
2023-12-27T17:48:39.781Z,9.10
2023-12-27T17:51:08.027Z,9.30
2023-12-27T17:53:36.232Z,9.20
2023-12-27T17:56:04.414Z,9.20
2023-12-27T17:58:32.526Z,9.20
2023-12-27T18:01:02.146Z,9.30
2023-12-27T18:03:30.435Z,9.20
2023-12-27T18:05:58.695Z,9.10
2023-12-27T18:08:26.856Z,9.10
2023-12-27T18:10:54.974Z,9.10
2023-12-27T18:13:23.175Z,9.30
2023-12-27T18:15:51.567Z,9.30
2023-12-27T18:18:21.384Z,9.20
2023-12-27T18:20:49.583Z,9.20
2023-12-27T18:23:17.704Z,9.20
2023-12-27T18:25:46.775Z,9.20
2023-12-27T18:28:14.982Z,9.20
2023-12-27T18:30:43.227Z,9.20
2023-12-27T18:33:12.662Z,9.20
2023-12-27T18:35:42.273Z,9.30
2023-12-27T18:43:09.230Z,9.10
2023-12-27T18:45:37.844Z,9.20
2023-12-27T18:48:09.344Z,9.20
2023-12-27T18:50:39.655Z,9.20
2023-12-27T18:53:09.253Z,9.20
2023-12-27T18:55:37.393Z,9.20
2023-12-27T18:58:08.356Z,9.30
2023-12-27T19:00:36.859Z,9.20
2023-12-27T19:03:05.584Z,9.30
2023-12-27T19:05:34.053Z,9.30
2023-12-27T19:08:02.235Z,9.30
2023-12-27T19:13:00.616Z,9.40
2023-12-27T19:15:28.946Z,9.40
2023-12-27T19:17:57.206Z,9.40
2023-12-27T19:20:25.528Z,9.50
2023-12-27T19:22:53.651Z,9.50
2023-12-27T19:25:21.797Z,9.50
2023-12-27T19:27:51.515Z,9.60
2023-12-27T19:30:19.867Z,9.70
2023-12-27T19:32:48.116Z,9.70
2023-12-27T19:35:18.432Z,9.70
2023-12-27T19:40:16.549Z,9.80
2023-12-27T19:42:44.731Z,9.80
2023-12-27T19:45:14.558Z,9.80
2023-12-27T19:47:42.806Z,9.80
2023-12-27T19:57:41.839Z,10.00
2023-12-27T20:00:11.122Z,10.00
2023-12-27T20:02:40.879Z,10.00
2023-12-27T20:05:09.622Z,10.00
2023-12-27T20:07:37.992Z,10.00
2023-12-27T20:10:06.756Z,10.10
2023-12-27T20:12:35.051Z,10.10
2023-12-27T20:15:05.594Z,10.10
2023-12-27T20:17:33.962Z,10.10
2023-12-27T20:20:03.617Z,10.20
2023-12-27T20:22:31.788Z,10.10
2023-12-27T20:25:00.298Z,10.10
2023-12-27T20:27:28.715Z,10.10
2023-12-27T20:29:57.021Z,10.10
2023-12-27T20:32:25.177Z,10.00
2023-12-27T20:34:53.998Z,9.90
2023-12-27T20:37:23.474Z,9.90
2023-12-27T20:39:52.546Z,10.00
2023-12-27T20:42:20.782Z,10.00
2023-12-27T20:44:48.974Z,10.10
2023-12-27T20:47:17.115Z,10.00
2023-12-27T20:52:14.868Z,10.10
2023-12-27T20:54:44.449Z,10.10
2023-12-27T20:57:14.066Z,10.00
2023-12-27T20:59:42.502Z,10.10
2023-12-27T21:02:10.754Z,10.10
2023-12-27T21:04:39.030Z,10.20
2023-12-27T21:07:07.364Z,10.10
2023-12-27T21:09:35.597Z,10.20
2023-12-27T21:12:05.716Z,10.30
2023-12-27T21:14:33.970Z,10.40
2023-12-27T21:17:02.194Z,10.50
2023-12-27T21:19:32.202Z,10.60
2023-12-27T21:22:01.660Z,10.70
2023-12-27T21:24:29.798Z,10.70
2023-12-27T21:26:57.907Z,10.90
2023-12-27T21:29:27.461Z,11.00
2023-12-27T21:31:55.656Z,10.90
2023-12-27T21:34:23.931Z,10.90
2023-12-27T21:36:53.116Z,11.00
2023-12-27T21:39:21.348Z,11.00
2023-12-27T21:41:49.549Z,11.10
2023-12-27T21:44:17.717Z,11.00
2023-12-27T21:46:48.931Z,11.00
2023-12-27T21:49:17.322Z,11.00
2023-12-27T21:51:45.629Z,11.00
2023-12-27T21:54:14.338Z,11.00
2023-12-27T21:56:43.904Z,10.90
2023-12-27T21:59:12.313Z,11.00
2023-12-27T22:01:40.587Z,11.00
2023-12-27T22:04:10.422Z,11.00
2023-12-27T22:06:40.161Z,11.00
2023-12-27T22:09:08.492Z,11.00
2023-12-27T22:11:36.739Z,11.10
2023-12-27T22:14:07.016Z,11.10
2023-12-27T22:16:35.328Z,11.10
2023-12-27T22:19:03.641Z,11.00
2023-12-27T22:21:33.324Z,11.10
2023-12-27T22:24:01.474Z,11.10
2023-12-27T22:26:29.641Z,11.10
2023-12-27T22:28:57.833Z,11.10
2023-12-27T22:31:26.287Z,11.10
2023-12-27T22:33:54.753Z,11.10
2023-12-27T22:36:25.055Z,11.10
2023-12-27T22:38:55.988Z,11.10
2023-12-27T22:41:24.514Z,11.10
2023-12-27T22:43:52.958Z,11.10
2023-12-27T22:53:46.895Z,11.20
2023-12-27T22:56:16.439Z,11.10
2023-12-27T22:58:44.589Z,11.10
2023-12-27T23:01:12.870Z,11.10
2023-12-27T23:03:41.127Z,11.10
2023-12-27T23:06:11.123Z,11.00
2023-12-27T23:08:39.345Z,11.10
2023-12-27T23:11:07.476Z,11.00
2023-12-27T23:13:36.976Z,11.00
2023-12-27T23:16:05.462Z,11.00
2023-12-27T23:18:33.953Z,11.00
2023-12-27T23:21:02.233Z,11.00
2023-12-27T23:23:30.385Z,11.00
2023-12-27T23:25:58.523Z,11.00
2023-12-27T23:28:26.782Z,11.00
2023-12-27T23:30:56.468Z,11.00
2023-12-27T23:33:26.352Z,11.00
2023-12-27T23:35:54.663Z,11.00
2023-12-27T23:38:22.918Z,11.00
2023-12-27T23:40:51.075Z,11.00
2023-12-27T23:43:19.248Z,11.00
2023-12-27T23:45:47.483Z,11.00
2023-12-27T23:48:17.225Z,10.90
2023-12-27T23:50:45.397Z,10.90
2023-12-27T23:53:13.736Z,10.90
2023-12-27T23:55:41.955Z,10.90
2023-12-27T23:58:10.108Z,10.90
